Terminal Aerodrome Forecast
Issued by NWS Goodland, KS

Home | Current Version | Previous Version | Text Only | Print | Product List | Glossary On
Versions: 1 2 3 4 5 6 7 8 9 10 11 12 13 14
637
FTUS43 KGLD 110525
TAFGLD
TAF
KGLD 110525Z 1106/1206 30010KT P6SM SKC
     FM111500 28007KT P6SM SCT150
     FM120000 29007KT P6SM SKC=

USA.gov is the U.S. government's official web portal to all federal, state and local government web resources and services.